createdAt,value
2018-09-03T00:01:40.236Z,24.82
2018-09-03T00:04:09.789Z,24.80
2018-09-03T00:06:39.292Z,24.75
2018-09-03T00:09:10.527Z,24.76
2018-09-03T00:11:40.066Z,24.79
2018-09-03T00:14:09.623Z,24.68
2018-09-03T00:16:39.165Z,24.68
2018-09-03T00:19:08.684Z,24.69
2018-09-03T00:21:38.169Z,24.64
2018-09-03T00:24:07.715Z,24.58
2018-09-03T00:26:37.239Z,24.59
2018-09-03T00:29:06.804Z,24.59
2018-09-03T00:31:41.398Z,23.73
2018-09-03T00:34:15.981Z,24.40
2018-09-03T00:36:50.619Z,24.31
2018-09-03T00:39:25.137Z,24.27
2018-09-03T00:41:59.871Z,24.26
2018-09-03T00:44:34.596Z,24.17
2018-09-03T00:47:08.286Z,24.18
2018-09-03T00:49:37.807Z,24.11
2018-09-03T00:52:07.584Z,24.06
2018-09-03T00:54:38.188Z,23.96
2018-09-03T00:57:07.731Z,23.91
2018-09-03T00:59:37.238Z,23.82
2018-09-03T01:02:06.960Z,23.80
2018-09-03T01:04:36.455Z,23.75
2018-09-03T01:07:06.075Z,23.61
2018-09-03T01:09:35.613Z,23.57
2018-09-03T01:12:05.307Z,23.48
2018-09-03T01:14:34.839Z,23.45
2018-09-03T01:17:04.504Z,23.51
2018-09-03T01:19:34.013Z,23.43
2018-09-03T01:22:03.690Z,23.41
2018-09-03T01:24:33.187Z,23.30
2018-09-03T01:27:02.739Z,23.21
2018-09-03T01:29:32.262Z,23.18
2018-09-03T01:32:01.827Z,23.20
2018-09-03T01:34:31.408Z,23.20
2018-09-03T01:37:00.952Z,23.24
2018-09-03T01:39:30.445Z,23.23
2018-09-03T01:42:00.056Z,23.19
2018-09-03T01:44:29.629Z,23.20
2018-09-03T01:46:59.240Z,23.17
2018-09-03T01:49:28.820Z,23.12
2018-09-03T01:51:58.359Z,23.17
2018-09-03T01:54:27.911Z,23.14
2018-09-03T01:56:57.395Z,23.15
2018-09-03T01:59:26.955Z,23.19
2018-09-03T02:01:56.547Z,23.18
2018-09-03T02:04:26.084Z,23.18
2018-09-03T02:06:55.675Z,23.17
2018-09-03T02:09:25.175Z,23.16
2018-09-03T02:11:54.764Z,23.09
2018-09-03T02:14:24.295Z,23.10
2018-09-03T02:16:53.842Z,23.01
2018-09-03T02:19:23.353Z,23.02
2018-09-03T02:21:52.943Z,23.03
2018-09-03T02:24:22.505Z,22.78
2018-09-03T02:26:52.148Z,23.01
2018-09-03T02:29:21.643Z,22.98
2018-09-03T02:31:51.245Z,22.96
2018-09-03T02:34:20.746Z,22.90
2018-09-03T02:36:50.364Z,22.92
2018-09-03T02:39:19.867Z,22.94
2018-09-03T02:41:49.395Z,22.88
2018-09-03T02:44:18.931Z,22.96
2018-09-03T02:46:48.523Z,22.86
2018-09-03T02:49:18.076Z,22.92
2018-09-03T02:51:47.609Z,22.87
2018-09-03T02:54:17.136Z,22.86
2018-09-03T02:56:46.671Z,22.87
2018-09-03T02:59:16.241Z,22.83
2018-09-03T03:01:45.731Z,22.88
2018-09-03T03:04:15.299Z,22.75
2018-09-03T03:06:44.838Z,22.77
2018-09-03T03:09:14.408Z,22.79
2018-09-03T03:11:44.073Z,22.81
2018-09-03T03:14:13.597Z,22.76
2018-09-03T03:16:43.151Z,22.64
2018-09-03T03:19:12.655Z,22.70
2018-09-03T03:21:42.270Z,22.73
2018-09-03T03:24:11.780Z,22.74
2018-09-03T03:26:41.315Z,22.72
2018-09-03T03:29:10.952Z,22.72
2018-09-03T03:31:40.494Z,22.78
2018-09-03T03:34:10.023Z,22.75
2018-09-03T03:36:39.556Z,22.73
2018-09-03T03:39:09.467Z,22.62
2018-09-03T03:41:39.065Z,22.56
2018-09-03T03:44:08.697Z,22.52
2018-09-03T03:46:38.324Z,22.55
2018-09-03T03:49:07.831Z,22.50
2018-09-03T03:51:37.359Z,22.54
2018-09-03T03:54:06.910Z,22.48
2018-09-03T03:56:36.455Z,22.56
2018-09-03T03:59:06.101Z,22.51
2018-09-03T04:01:35.705Z,22.54
2018-09-03T04:04:05.340Z,22.55
2018-09-03T04:06:34.839Z,22.59
2018-09-03T04:09:05.393Z,22.64
2018-09-03T04:11:34.946Z,22.65
2018-09-03T04:14:04.495Z,22.63
2018-09-03T04:16:34.044Z,22.64
2018-09-03T04:19:03.643Z,22.67
2018-09-03T04:21:33.127Z,22.58
2018-09-03T04:24:02.748Z,22.54
2018-09-03T04:26:32.307Z,22.46
2018-09-03T04:29:01.928Z,22.58
2018-09-03T04:31:31.463Z,22.49
2018-09-03T04:34:01.013Z,22.56
2018-09-03T04:36:30.700Z,22.61
2018-09-03T04:39:00.211Z,22.65
2018-09-03T04:41:29.824Z,22.84
2018-09-03T04:43:59.416Z,22.89
2018-09-03T04:46:28.963Z,23.00
2018-09-03T04:48:58.516Z,23.02
2018-09-03T04:51:28.055Z,23.19
2018-09-03T04:53:57.850Z,23.35
2018-09-03T04:56:27.661Z,23.47
2018-09-03T04:58:57.281Z,23.55
2018-09-03T05:01:26.876Z,23.70
2018-09-03T05:03:56.432Z,23.75
2018-09-03T05:06:25.992Z,23.88
2018-09-03T05:08:55.508Z,24.12
2018-09-03T05:11:25.087Z,24.26
2018-09-03T05:13:54.683Z,24.28
2018-09-03T05:16:24.247Z,24.39
2018-09-03T05:18:53.951Z,24.51
2018-09-03T05:21:23.870Z,23.96
2018-09-03T05:23:53.416Z,24.88
2018-09-03T05:26:25.029Z,25.02
2018-09-03T05:28:54.631Z,25.17
2018-09-03T05:31:24.240Z,25.23
2018-09-03T05:33:54.299Z,25.57
2018-09-03T05:36:24.193Z,25.61
2018-09-03T05:38:54.731Z,25.73
2018-09-03T05:41:24.323Z,25.86
2018-09-03T05:43:54.468Z,25.97
2018-09-03T05:46:24.039Z,26.08
2018-09-03T05:48:53.718Z,26.29
2018-09-03T05:51:23.262Z,26.45
2018-09-03T05:53:52.912Z,26.53
2018-09-03T05:56:23.084Z,26.79
2018-09-03T05:58:52.736Z,26.92
2018-09-03T06:01:22.257Z,27.01
2018-09-03T06:03:52.949Z,27.13
2018-09-03T06:06:22.635Z,27.32
2018-09-03T06:08:52.303Z,27.28
2018-09-03T06:11:21.859Z,27.45
2018-09-03T06:13:51.459Z,27.74
2018-09-03T06:16:21.431Z,27.70
2018-09-03T06:18:51.055Z,27.96
2018-09-03T06:21:20.671Z,28.09
2018-09-03T06:23:51.408Z,28.10
2018-09-03T06:26:21.227Z,28.06
2018-09-03T06:28:50.787Z,27.91
2018-09-03T06:31:20.487Z,28.18
2018-09-03T06:33:50.091Z,28.10
2018-09-03T06:36:19.715Z,28.37
2018-09-03T06:38:49.351Z,28.38
2018-09-03T06:41:19.149Z,28.56
2018-09-03T06:43:48.840Z,28.68
2018-09-03T06:46:18.847Z,28.93
2018-09-03T06:48:48.717Z,28.88
2018-09-03T06:51:18.726Z,28.88
2018-09-03T06:53:48.500Z,29.14
2018-09-03T06:56:18.111Z,29.21
2018-09-03T06:58:48.966Z,29.32
2018-09-03T07:01:18.644Z,29.44
2018-09-03T07:03:48.229Z,29.45
2018-09-03T07:06:17.798Z,29.54
2018-09-03T07:08:47.352Z,29.60
2018-09-03T07:11:17.008Z,29.69
2018-09-03T07:13:46.638Z,29.69
2018-09-03T07:16:16.196Z,29.91
2018-09-03T07:18:45.775Z,30.03
2018-09-03T07:21:15.312Z,29.91
2018-09-03T07:23:44.856Z,30.00
2018-09-03T07:26:14.517Z,30.31
2018-09-03T07:28:44.066Z,30.31
2018-09-03T07:31:13.680Z,30.11
2018-09-03T07:33:43.397Z,30.23
2018-09-03T07:36:12.950Z,30.42
2018-09-03T07:38:42.529Z,30.46
2018-09-03T07:41:12.456Z,30.55
2018-09-03T07:43:42.092Z,30.54
2018-09-03T07:46:11.595Z,30.65
2018-09-03T07:48:41.183Z,30.47
2018-09-03T07:51:10.743Z,30.51
2018-09-03T07:53:40.305Z,30.63
2018-09-03T07:56:10.100Z,30.67
2018-09-03T07:58:39.822Z,30.74
2018-09-03T08:01:09.380Z,30.83
2018-09-03T08:03:39.275Z,30.79
2018-09-03T08:06:08.778Z,30.92
2018-09-03T08:08:38.418Z,30.91
2018-09-03T08:11:08.041Z,31.22
2018-09-03T08:13:40.520Z,31.36
2018-09-03T08:16:11.254Z,31.48
2018-09-03T08:18:41.571Z,30.76
2018-09-03T08:21:11.164Z,31.53
2018-09-03T08:23:40.804Z,31.71
2018-09-03T08:26:10.561Z,31.96
2018-09-03T08:28:40.160Z,32.07
2018-09-03T08:31:09.739Z,31.63
2018-09-03T08:33:39.324Z,32.26
2018-09-03T08:36:08.912Z,32.36
2018-09-03T08:38:38.431Z,32.28
2018-09-03T08:41:08.165Z,32.20
2018-09-03T08:43:37.852Z,32.17
2018-09-03T08:46:07.460Z,32.22
2018-09-03T08:48:37.212Z,32.13
2018-09-03T08:51:06.844Z,32.12
2018-09-03T08:53:36.469Z,32.13
2018-09-03T08:56:06.296Z,32.34
2018-09-03T08:58:35.939Z,32.58
2018-09-03T09:01:05.559Z,32.63
2018-09-03T09:03:41.841Z,32.69
2018-09-03T09:06:12.006Z,32.65
2018-09-03T09:08:41.639Z,32.80
2018-09-03T09:11:11.203Z,32.81
2018-09-03T09:13:40.706Z,32.98
2018-09-03T09:16:10.310Z,32.42
2018-09-03T09:18:39.831Z,32.97
2018-09-03T09:21:09.447Z,33.01
2018-09-03T09:23:39.115Z,33.05
2018-09-03T09:26:08.723Z,32.72
2018-09-03T09:28:38.341Z,32.91
2018-09-03T09:31:07.982Z,32.91
2018-09-03T09:33:37.615Z,33.08
2018-09-03T09:36:07.240Z,33.15
2018-09-03T09:38:36.788Z,33.10
2018-09-03T09:41:07.152Z,33.09
2018-09-03T09:43:36.710Z,33.14
2018-09-03T09:46:06.335Z,33.26
2018-09-03T09:48:35.883Z,33.34
2018-09-03T09:51:05.643Z,33.30
2018-09-03T09:53:35.215Z,33.38
2018-09-03T09:56:04.876Z,33.51
2018-09-03T09:58:34.443Z,33.57
2018-09-03T10:01:09.232Z,33.66
2018-09-03T10:03:38.836Z,33.68
2018-09-03T10:06:08.826Z,33.57
2018-09-03T10:08:38.415Z,33.62
2018-09-03T10:11:07.954Z,33.67
2018-09-03T10:13:37.512Z,33.58
2018-09-03T10:16:07.136Z,33.59
2018-09-03T10:18:36.708Z,33.35
2018-09-03T10:21:06.260Z,33.43
2018-09-03T10:23:35.923Z,33.48
2018-09-03T10:26:07.234Z,33.48
2018-09-03T10:28:36.915Z,33.41
2018-09-03T10:31:06.666Z,33.52
2018-09-03T10:33:36.197Z,33.48
2018-09-03T10:36:05.795Z,33.33
2018-09-03T10:38:35.375Z,33.36
2018-09-03T10:41:04.927Z,33.55
2018-09-03T10:43:34.434Z,33.69
2018-09-03T10:46:04.027Z,33.74
2018-09-03T10:48:33.573Z,33.85
2018-09-03T10:51:03.059Z,33.79
2018-09-03T10:53:32.577Z,33.58
2018-09-03T10:56:02.091Z,33.62
2018-09-03T10:58:31.631Z,33.64
2018-09-03T11:01:01.287Z,33.75
2018-09-03T11:03:31.929Z,33.70
2018-09-03T11:06:01.591Z,33.79
2018-09-03T11:08:31.180Z,33.79
2018-09-03T11:11:00.689Z,33.78
2018-09-03T11:13:30.791Z,33.82
2018-09-03T11:16:00.319Z,33.68
2018-09-03T11:18:31.023Z,33.69
2018-09-03T11:21:00.634Z,33.70
2018-09-03T11:23:30.131Z,33.73
2018-09-03T11:25:59.790Z,33.70
2018-09-03T11:28:29.277Z,33.74
2018-09-03T11:30:58.919Z,33.78
2018-09-03T11:33:28.452Z,33.76
2018-09-03T11:35:57.970Z,33.76
2018-09-03T11:38:27.489Z,33.72
2018-09-03T11:40:57.014Z,33.56
2018-09-03T11:43:26.556Z,33.57
2018-09-03T11:45:56.043Z,33.66
2018-09-03T11:48:25.551Z,33.69
2018-09-03T11:50:55.161Z,33.77
2018-09-03T11:53:24.683Z,33.63
2018-09-03T11:55:54.287Z,33.67
2018-09-03T11:58:23.985Z,33.66
2018-09-03T12:00:57.766Z,33.67
2018-09-03T12:03:27.426Z,33.64
2018-09-03T12:05:58.264Z,32.93
2018-09-03T12:08:27.768Z,33.60
2018-09-03T12:10:57.320Z,33.37
2018-09-03T12:13:26.853Z,33.41
2018-09-03T12:16:12.035Z,33.46
2018-09-03T12:18:42.517Z,33.03
2018-09-03T12:21:13.358Z,33.42
2018-09-03T12:23:43.640Z,33.56
2018-09-03T12:26:13.267Z,33.03
2018-09-03T12:28:42.831Z,33.61
2018-09-03T12:31:12.383Z,33.54
2018-09-03T12:33:41.908Z,33.65
2018-09-03T12:36:11.479Z,33.69
2018-09-03T12:38:41.020Z,33.73
2018-09-03T12:41:10.610Z,33.79
2018-09-03T12:43:40.179Z,33.81
2018-09-03T12:46:09.753Z,33.81
2018-09-03T12:48:39.330Z,33.87
2018-09-03T12:51:08.949Z,33.87
2018-09-03T12:53:38.407Z,33.97
2018-09-03T12:56:08.016Z,34.06
2018-09-03T12:58:37.713Z,34.06
2018-09-03T13:01:07.495Z,34.09
2018-09-03T13:03:37.280Z,34.08
2018-09-03T13:06:07.017Z,34.04
2018-09-03T13:08:36.520Z,34.07
2018-09-03T13:11:06.206Z,34.12
2018-09-03T13:13:35.771Z,34.11
2018-09-03T13:16:05.454Z,34.14
2018-09-03T13:18:35.013Z,34.09
2018-09-03T13:21:04.555Z,33.95
2018-09-03T13:23:34.111Z,33.99
2018-09-03T13:26:03.691Z,34.12
2018-09-03T13:28:33.331Z,34.14
2018-09-03T13:31:02.895Z,34.11
2018-09-03T13:33:32.461Z,34.17
2018-09-03T13:36:02.271Z,34.27
2018-09-03T13:38:32.671Z,34.22
2018-09-03T13:41:02.402Z,34.20
2018-09-03T13:43:32.040Z,34.23
2018-09-03T13:46:01.540Z,34.05
2018-09-03T13:48:31.092Z,34.12
2018-09-03T13:51:00.695Z,34.04
2018-09-03T13:53:30.269Z,34.00
2018-09-03T13:55:59.795Z,33.94
2018-09-03T13:58:29.394Z,33.83
2018-09-03T14:00:58.929Z,33.87
2018-09-03T14:03:28.486Z,33.90
2018-09-03T14:05:58.227Z,33.85
2018-09-03T14:08:27.944Z,33.89
2018-09-03T14:10:57.468Z,33.95
2018-09-03T14:13:27.018Z,33.90
2018-09-03T14:15:56.511Z,33.95
2018-09-03T14:18:26.040Z,33.93
2018-09-03T14:20:57.020Z,33.86
2018-09-03T14:23:26.644Z,33.81
2018-09-03T14:25:56.165Z,33.79
2018-09-03T14:28:25.715Z,33.89
2018-09-03T14:30:55.262Z,33.83
2018-09-03T14:33:24.809Z,33.80
2018-09-03T14:35:54.290Z,33.71
2018-09-03T14:38:23.843Z,33.71
2018-09-03T14:40:53.323Z,33.67
2018-09-03T14:43:22.867Z,33.67
2018-09-03T14:45:52.455Z,33.64
2018-09-03T14:48:22.132Z,33.67
2018-09-03T14:50:51.664Z,33.63
2018-09-03T14:53:21.148Z,33.54
2018-09-03T14:55:50.758Z,33.50
2018-09-03T14:58:20.302Z,33.50
2018-09-03T15:00:49.835Z,33.47
2018-09-03T15:03:19.351Z,33.48
2018-09-03T15:05:48.923Z,33.47
2018-09-03T15:08:18.542Z,33.43
2018-09-03T15:10:48.031Z,33.34
2018-09-03T15:13:17.580Z,33.33
2018-09-03T15:15:47.172Z,33.28
2018-09-03T15:18:16.782Z,33.19
2018-09-03T15:20:46.343Z,33.13
2018-09-03T15:23:15.867Z,33.04
2018-09-03T15:25:45.397Z,32.93
2018-09-03T15:28:14.915Z,32.83
2018-09-03T15:30:44.499Z,32.78
2018-09-03T15:33:13.979Z,32.68
2018-09-03T15:35:43.472Z,32.60
2018-09-03T15:38:12.955Z,32.52
2018-09-03T15:40:42.495Z,32.43
2018-09-03T15:43:12.126Z,32.38
2018-09-03T15:45:41.631Z,32.25
2018-09-03T15:48:11.169Z,32.24
2018-09-03T15:50:40.743Z,32.15
2018-09-03T15:53:10.257Z,32.05
2018-09-03T15:55:39.839Z,31.93
2018-09-03T15:58:09.359Z,31.86
2018-09-03T16:00:38.896Z,31.75
2018-09-03T16:03:08.403Z,31.69
2018-09-03T16:05:37.958Z,31.63
2018-09-03T16:08:07.482Z,31.53
2018-09-03T16:10:37.106Z,31.49
2018-09-03T16:13:06.619Z,31.42
2018-09-03T16:15:36.125Z,31.35
2018-09-03T16:18:05.882Z,31.26
2018-09-03T16:20:35.515Z,31.16
2018-09-03T16:23:05.010Z,31.11
2018-09-03T16:25:34.522Z,31.02
2018-09-03T16:28:04.223Z,30.94
2018-09-03T16:30:33.736Z,30.86
2018-09-03T16:33:03.483Z,30.81
2018-09-03T16:35:33.019Z,30.66
2018-09-03T16:38:02.681Z,30.61
2018-09-03T16:40:32.185Z,30.56
2018-09-03T16:43:01.706Z,30.48
2018-09-03T16:45:31.202Z,30.44
2018-09-03T16:48:00.831Z,30.39
2018-09-03T16:50:30.324Z,30.37
2018-09-03T16:52:59.860Z,30.28
2018-09-03T16:55:29.404Z,30.23
2018-09-03T16:57:58.892Z,30.08
2018-09-03T17:00:28.386Z,30.04
2018-09-03T17:02:57.924Z,29.97
2018-09-03T17:05:27.471Z,29.86
2018-09-03T17:07:57.085Z,29.79
2018-09-03T17:10:26.576Z,29.67
2018-09-03T17:12:56.051Z,29.64
2018-09-03T17:15:25.559Z,29.58
2018-09-03T17:17:55.237Z,29.48
2018-09-03T17:20:24.755Z,29.48
2018-09-03T17:22:54.297Z,29.46
2018-09-03T17:25:23.783Z,29.40
2018-09-03T17:27:53.301Z,29.30
2018-09-03T17:30:22.876Z,29.20
2018-09-03T17:32:52.387Z,29.10
2018-09-03T17:35:21.903Z,29.08
2018-09-03T17:37:51.450Z,29.06
2018-09-03T17:40:20.983Z,28.98
2018-09-03T17:42:50.465Z,28.86
2018-09-03T17:45:19.983Z,28.76
2018-09-03T17:47:49.561Z,28.74
2018-09-03T17:50:19.109Z,28.71
2018-09-03T17:52:48.572Z,28.69
2018-09-03T17:55:18.083Z,28.66
2018-09-03T17:57:47.549Z,28.64
2018-09-03T18:00:17.103Z,28.59
2018-09-03T18:02:46.647Z,28.56
2018-09-03T18:05:16.166Z,28.52
2018-09-03T18:07:45.635Z,28.44
2018-09-03T18:10:15.151Z,28.41
2018-09-03T18:12:44.651Z,28.34
2018-09-03T18:15:14.290Z,28.31
2018-09-03T18:17:43.855Z,28.23
2018-09-03T18:20:13.373Z,28.20
2018-09-03T18:22:42.879Z,28.20
2018-09-03T18:25:12.395Z,28.18
2018-09-03T18:27:41.900Z,28.16
2018-09-03T18:30:11.588Z,28.13
2018-09-03T18:32:41.198Z,28.08
2018-09-03T18:35:10.732Z,28.00
2018-09-03T18:37:40.239Z,27.99
2018-09-03T18:40:09.750Z,27.97
2018-09-03T18:42:39.267Z,27.97
2018-09-03T18:45:09.651Z,27.90
2018-09-03T18:47:39.219Z,27.88
2018-09-03T18:50:10.457Z,27.88
2018-09-03T18:52:40.620Z,27.90
2018-09-03T18:55:10.404Z,27.88
2018-09-03T18:57:39.970Z,27.93
2018-09-03T19:00:09.646Z,27.90
2018-09-03T19:02:39.167Z,27.88
2018-09-03T19:05:08.724Z,27.91
2018-09-03T19:07:38.619Z,27.84
2018-09-03T19:10:08.220Z,27.87
2018-09-03T19:12:37.768Z,27.88
2018-09-03T19:15:07.995Z,27.83
2018-09-03T19:17:37.671Z,27.79
2018-09-03T19:20:07.322Z,27.81
2018-09-03T19:22:36.884Z,27.80
2018-09-03T19:25:06.463Z,27.81
2018-09-03T19:27:36.108Z,27.79
2018-09-03T19:30:05.846Z,27.78
2018-09-03T19:32:35.429Z,27.73
2018-09-03T19:35:05.099Z,27.76
2018-09-03T19:37:34.669Z,27.71
2018-09-03T19:40:04.252Z,27.68
2018-09-03T19:42:33.824Z,27.67
2018-09-03T19:45:03.408Z,27.57
2018-09-03T19:47:33.032Z,27.45
2018-09-03T19:50:02.555Z,27.47
2018-09-03T19:52:32.151Z,27.45
2018-09-03T19:55:01.726Z,27.42
2018-09-03T19:57:31.336Z,27.44
2018-09-03T20:00:00.855Z,27.40
2018-09-03T20:02:30.400Z,27.33
2018-09-03T20:04:59.979Z,27.28
2018-09-03T20:07:29.592Z,27.33
2018-09-03T20:09:59.129Z,27.34
2018-09-03T20:12:28.707Z,27.30
2018-09-03T20:14:58.287Z,27.29
2018-09-03T20:17:27.901Z,27.33
2018-09-03T20:19:57.532Z,27.19
2018-09-03T20:22:27.091Z,27.25
2018-09-03T20:24:56.619Z,27.14
2018-09-03T20:27:26.190Z,27.16
2018-09-03T20:29:56.703Z,27.05
2018-09-03T20:32:26.231Z,27.02
2018-09-03T20:34:55.764Z,26.99
2018-09-03T20:37:25.299Z,26.91
2018-09-03T20:39:54.898Z,26.82
2018-09-03T20:42:24.422Z,26.81
2018-09-03T20:44:54.066Z,26.69
2018-09-03T20:47:23.572Z,26.64
2018-09-03T20:49:53.160Z,26.50
2018-09-03T20:52:22.714Z,26.50
2018-09-03T20:54:52.248Z,26.31
2018-09-03T20:57:21.822Z,26.29
2018-09-03T20:59:51.387Z,26.22
2018-09-03T21:02:20.939Z,26.24
2018-09-03T21:04:50.471Z,26.16
2018-09-03T21:07:20.146Z,26.00
2018-09-03T21:09:49.711Z,26.03
2018-09-03T21:12:19.301Z,25.93
2018-09-03T21:14:48.848Z,25.86
2018-09-03T21:17:18.358Z,25.84
2018-09-03T21:19:47.983Z,25.87
2018-09-03T21:22:17.620Z,25.64
2018-09-03T21:24:47.184Z,25.73
2018-09-03T21:27:16.783Z,25.65
2018-09-03T21:29:46.268Z,25.73
2018-09-03T21:32:15.895Z,25.61
2018-09-03T21:34:45.432Z,25.55
2018-09-03T21:37:15.056Z,25.52
2018-09-03T21:39:44.687Z,25.43
2018-09-03T21:42:14.241Z,25.44
2018-09-03T21:44:43.871Z,25.44
2018-09-03T21:47:13.399Z,25.40
2018-09-03T21:49:42.919Z,25.32
2018-09-03T21:52:12.512Z,25.24
2018-09-03T21:54:42.220Z,25.24
2018-09-03T21:57:11.860Z,25.23
2018-09-03T21:59:41.443Z,25.21
2018-09-03T22:02:11.439Z,25.21
2018-09-03T22:04:42.541Z,25.20
2018-09-03T22:07:12.572Z,25.16
2018-09-03T22:09:42.107Z,25.17
2018-09-03T22:12:11.645Z,25.16
2018-09-03T22:14:41.204Z,25.12
2018-09-03T22:17:10.817Z,25.14
2018-09-03T22:19:40.316Z,25.07
2018-09-03T22:22:09.947Z,24.94
2018-09-03T22:24:39.479Z,25.00
2018-09-03T22:27:09.040Z,25.02
2018-09-03T22:29:38.640Z,25.02
2018-09-03T22:32:08.149Z,24.99
2018-09-03T22:34:37.711Z,25.01
2018-09-03T22:37:07.309Z,24.98
2018-09-03T22:39:36.855Z,24.99
2018-09-03T22:42:06.375Z,24.95
2018-09-03T22:44:35.899Z,24.94
2018-09-03T22:47:05.504Z,24.93
2018-09-03T22:49:35.023Z,24.94
2018-09-03T22:52:04.595Z,24.94
2018-09-03T22:54:34.320Z,24.94
2018-09-03T22:57:03.867Z,24.91
2018-09-03T22:59:33.372Z,24.86
2018-09-03T23:02:03.012Z,24.79
2018-09-03T23:04:32.515Z,24.03
2018-09-03T23:07:02.075Z,24.82
2018-09-03T23:09:31.558Z,24.83
2018-09-03T23:12:01.139Z,24.82
2018-09-03T23:14:30.663Z,24.82
2018-09-03T23:17:00.211Z,24.82
2018-09-03T23:19:29.727Z,24.81
2018-09-03T23:24:33.932Z,24.80
2018-09-03T23:27:03.556Z,24.82
2018-09-03T23:29:33.117Z,24.84
2018-09-03T23:32:02.688Z,24.85
2018-09-03T23:34:32.203Z,24.84
2018-09-03T23:37:01.728Z,24.82
2018-09-03T23:39:31.319Z,24.83
2018-09-03T23:42:00.919Z,24.80
2018-09-03T23:44:30.464Z,24.81
2018-09-03T23:46:59.962Z,24.79
2018-09-03T23:49:29.491Z,24.72
2018-09-03T23:51:59.111Z,24.68
2018-09-03T23:54:28.600Z,24.68
2018-09-03T23:56:58.174Z,24.64
2018-09-03T23:59:27.749Z,23.78
